Time;durP1;ratioP1;P1;durP2;ratioP2;P2;SDS_P1;SDS_P2;PMS_P1;PMS_P2;Temp;Humidity;BMP_temperature;BMP_pressure;BME280_temperature;BME280_humidity;BME280_pressure;Samples;Min_cycle;Max_cycle;Signal;HPM_P1;HPM_P2
2022/07/19 00:02:17;;;;;;;4.87;4.40;;;21.10;50.70;;;;;;5079617;28;20199;-55
2022/07/19 00:04:42;;;;;;;5.40;3.97;;;21.10;51.00;;;;;;5079993;28;20174;-50
2022/07/19 00:07:08;;;;;;;4.40;4.03;;;21.00;50.80;;;;;;5079328;28;20742;-52
2022/07/19 00:09:33;;;;;;;4.83;4.40;;;21.00;50.70;;;;;;5079710;28;20250;-54
2022/07/19 00:11:59;;;;;;;4.97;4.57;;;21.00;50.70;;;;;;5079087;28;20215;-51
2022/07/19 00:14:25;;;;;;;4.20;3.80;;;20.90;50.70;;;;;;5079203;28;20240;-54
2022/07/19 00:16:50;;;;;;;5.20;4.70;;;20.90;50.90;;;;;;5078872;28;20175;-51
2022/07/19 00:19:16;;;;;;;5.60;4.50;;;20.90;50.90;;;;;;5059931;28;20180;-51
2022/07/19 00:21:42;;;;;;;4.17;3.87;;;20.80;51.00;;;;;;5078633;28;20172;-52
2022/07/19 00:24:08;;;;;;;4.37;4.00;;;20.80;51.30;;;;;;5078401;28;20190;-51
2022/07/19 00:26:33;;;;;;;4.20;3.90;;;20.80;51.40;;;;;;5079642;28;20278;-51
2022/07/19 00:29:00;;;;;;;4.27;3.97;;;20.80;51.50;;;;;;5079452;28;20185;-51
2022/07/19 00:31:26;;;;;;;4.60;4.00;;;20.80;51.30;;;;;;5078859;28;20590;-54
2022/07/19 00:33:52;;;;;;;5.27;4.80;;;20.70;51.30;;;;;;5078167;28;20702;-53
2022/07/19 00:36:19;;;;;;;4.37;3.97;;;20.70;51.20;;;;;;5079576;28;20398;-52
2022/07/19 00:38:45;;;;;;;6.10;4.50;;;20.70;51.20;;;;;;5079431;28;20481;-52
2022/07/19 00:41:11;;;;;;;4.50;4.10;;;20.60;51.30;;;;;;5078004;28;20428;-52
2022/07/19 00:43:40;;;;;;;5.63;4.27;;;20.60;51.50;;;;;;5079037;28;20838;-52
2022/07/19 00:46:15;;;;;;;4.70;4.30;;;20.60;51.70;;;;;;5078411;28;20428;-55
2022/07/19 00:48:41;;;;;;;5.40;4.10;;;20.60;51.80;;;;;;5079059;28;20435;-51
2022/07/19 00:51:10;;;;;;;4.90;4.50;;;20.60;52.20;;;;;;5078872;28;20476;-50
2022/07/19 00:53:40;;;;;;;7.23;4.00;;;20.60;52.40;;;;;;5078674;28;20468;-51
2022/07/19 00:56:08;;;;;;;3.80;3.50;;;20.50;52.40;;;;;;5079102;28;20408;-50
2022/07/19 00:58:35;;;;;;;5.03;4.43;;;20.50;52.60;;;;;;5078880;28;20627;-52
2022/07/19 01:01:03;;;;;;;4.27;3.90;;;20.50;53.00;;;;;;5078305;28;20434;-51
2022/07/19 01:03:29;;;;;;;7.13;4.00;;;20.50;53.10;;;;;;5079016;28;20530;-53
2022/07/19 01:05:54;;;;;;;5.10;4.70;;;20.40;53.30;;;;;;5078482;28;20911;-50
2022/07/19 01:08:20;;;;;;;3.80;3.50;;;20.40;53.50;;;;;;5078365;28;20448;-53
2022/07/19 01:10:46;;;;;;;4.80;4.33;;;20.40;53.70;;;;;;5078537;28;20222;-52
2022/07/19 01:13:14;;;;;;;4.43;4.03;;;20.40;53.90;;;;;;5078201;28;20172;-52
2022/07/19 01:18:44;;;;;;;4.80;4.40;;;20.30;54.40;;;;;;5075717;28;20850;-51
2022/07/19 01:21:21;;;;;;;4.53;4.03;;;20.30;54.50;;;;;;5076203;28;20427;-53
2022/07/19 01:23:47;;;;;;;4.40;4.00;;;20.30;54.60;;;;;;5076590;28;20472;-50
2022/07/19 01:26:12;;;;;;;4.67;4.10;;;20.30;54.90;;;;;;5076468;28;20432;-50
2022/07/19 01:28:38;;;;;;;5.20;4.00;;;20.20;55.00;;;;;;5076759;28;20412;-50
2022/07/19 01:31:04;;;;;;;4.23;3.93;;;20.20;55.30;;;;;;5059598;28;20341;-53
2022/07/19 01:33:30;;;;;;;4.90;4.40;;;20.20;55.50;;;;;;5077011;28;20937;-51
2022/07/19 01:35:55;;;;;;;4.70;4.40;;;20.10;55.70;;;;;;5076395;28;20879;-51
2022/07/19 01:38:21;;;;;;;4.57;4.13;;;20.10;55.90;;;;;;5075448;28;20174;-55
2022/07/19 01:40:46;;;;;;;5.60;4.20;;;20.10;56.20;;;;;;5076300;28;20185;-51
2022/07/19 01:43:12;;;;;;;5.00;4.50;;;20.10;56.50;;;;;;5075335;28;20189;-51
2022/07/19 01:45:38;;;;;;;4.80;4.40;;;20.10;56.50;;;;;;5075885;28;20194;-53
2022/07/19 01:48:04;;;;;;;4.87;4.47;;;20.00;56.70;;;;;;5074384;28;20227;-53
2022/07/19 01:50:30;;;;;;;4.47;4.07;;;20.00;56.90;;;;;;5077808;28;20289;-52
2022/07/19 01:52:56;;;;;;;4.00;3.70;;;20.00;57.30;;;;;;5077665;28;20416;-51
2022/07/19 01:55:21;;;;;;;4.60;4.20;;;20.00;57.40;;;;;;5077835;28;20187;-52
2022/07/19 01:57:48;;;;;;;4.77;4.37;;;20.00;57.40;;;;;;5077939;28;20296;-52
2022/07/19 02:00:14;;;;;;;4.70;4.13;;;20.00;57.60;;;;;;5077499;28;20644;-49
2022/07/19 02:02:40;;;;;;;5.70;4.17;;;20.00;57.70;;;;;;5077466;28;20419;-53
2022/07/19 02:05:06;;;;;;;4.63;4.23;;;20.00;57.70;;;;;;5077840;28;20222;-50
2022/07/19 02:07:32;;;;;;;4.87;4.37;;;20.00;58.00;;;;;;5076764;28;20204;-50
2022/07/19 02:09:58;;;;;;;4.63;4.13;;;20.00;58.10;;;;;;5077363;28;20425;-52
2022/07/19 02:12:23;;;;;;;4.57;4.23;;;19.90;58.00;;;;;;5077499;28;20707;-56
2022/07/19 02:14:49;;;;;;;4.80;4.40;;;19.90;58.10;;;;;;5077368;28;20188;-51
2022/07/19 02:17:15;;;;;;;4.63;4.23;;;19.90;58.40;;;;;;5077476;28;20230;-52
2022/07/19 02:19:40;;;;;;;4.63;4.23;;;19.90;58.60;;;;;;5077253;28;20185;-51
2022/07/19 02:22:06;;;;;;;4.13;3.83;;;19.80;59.20;;;;;;5077445;28;20193;-51
2022/07/19 02:24:31;;;;;;;4.70;4.30;;;19.80;59.50;;;;;;5076930;28;20180;-51
2022/07/19 02:26:57;;;;;;;5.17;4.70;;;19.80;59.90;;;;;;5076521;28;20184;-51
2022/07/19 02:29:22;;;;;;;4.53;4.23;;;19.80;60.30;;;;;;5076961;28;20453;-53
2022/07/19 02:31:48;;;;;;;4.53;4.13;;;19.70;60.20;;;;;;5077342;28;20238;-52
2022/07/19 02:34:14;;;;;;;4.90;4.50;;;19.70;61.00;;;;;;5077027;28;20484;-50
2022/07/19 02:36:39;;;;;;;5.77;4.80;;;19.60;61.20;;;;;;5077096;28;20238;-51
2022/07/19 02:39:05;;;;;;;5.00;4.60;;;19.60;61.50;;;;;;5077742;28;20178;-52
2022/07/19 02:41:31;;;;;;;5.00;4.60;;;19.60;61.80;;;;;;5076915;28;20466;-51
2022/07/19 02:43:57;;;;;;;5.10;4.70;;;19.60;62.10;;;;;;5077114;28;20180;-55
2022/07/19 02:46:22;;;;;;;4.90;4.50;;;19.50;63.50;;;;;;5076527;28;20442;-51
2022/07/19 02:48:48;;;;;;;4.67;4.30;;;19.50;62.80;;;;;;5076731;28;20171;-51
2022/07/19 02:51:14;;;;;;;4.67;4.30;;;19.50;63.70;;;;;;5077211;28;20227;-52
2022/07/19 02:53:39;;;;;;;4.70;4.30;;;19.50;63.90;;;;;;5076572;28;20187;-51
2022/07/19 02:56:05;;;;;;;5.80;4.17;;;19.50;64.30;;;;;;5079840;28;20188;-54
2022/07/19 02:58:31;;;;;;;4.60;4.27;;;19.50;64.60;;;;;;5079548;28;20202;-51
2022/07/19 03:00:57;;;;;;;4.70;4.30;;;19.50;64.80;;;;;;5079571;28;20514;-51
2022/07/19 03:06:06;;;;;;;4.80;4.40;;;19.50;64.60;;;;;;5079544;28;20611;-51
2022/07/19 03:08:32;;;;;;;4.23;3.90;;;19.50;65.20;;;;;;5079778;28;20511;-52
2022/07/19 03:10:57;;;;;;;4.80;4.50;;;19.40;65.40;;;;;;5080368;28;20479;-52
2022/07/19 03:13:23;;;;;;;4.73;4.23;;;19.50;65.90;;;;;;5080250;28;20227;-51
2022/07/19 03:15:49;;;;;;;5.10;4.70;;;19.40;65.80;;;;;;5080200;28;20185;-51
2022/07/19 03:18:14;;;;;;;5.17;4.70;;;19.40;66.20;;;;;;5080744;28;20614;-50
2022/07/19 03:20:40;;;;;;;4.50;4.10;;;19.40;66.30;;;;;;5080564;28;20259;-53
2022/07/19 03:23:06;;;;;;;5.30;4.80;;;19.40;66.50;;;;;;5080251;28;20469;-53
2022/07/19 03:25:31;;;;;;;5.30;3.60;;;19.40;66.80;;;;;;5080648;28;20176;-52
2022/07/19 03:27:57;;;;;;;4.50;4.10;;;19.30;66.90;;;;;;5080666;28;20517;-54
2022/07/19 03:30:23;;;;;;;4.50;4.10;;;19.40;67.10;;;;;;5080895;28;20204;-51
2022/07/19 03:32:48;;;;;;;5.30;4.90;;;19.40;67.00;;;;;;5078923;28;20627;-51
2022/07/19 03:35:14;;;;;;;4.67;4.10;;;19.30;66.90;;;;;;5080077;28;20464;-54
2022/07/19 03:37:39;;;;;;;4.60;4.20;;;19.30;66.80;;;;;;5080654;28;20203;-52
2022/07/19 03:40:06;;;;;;;4.07;3.70;;;19.30;67.30;;;;;;5080318;28;20188;-55
2022/07/19 03:42:31;;;;;;;5.20;4.80;;;19.30;68.10;;;;;;5080594;28;20189;-52
2022/07/19 03:44:57;;;;;;;4.80;4.40;;;19.30;67.60;;;;;;5080572;28;20494;-53
2022/07/19 03:47:24;;;;;;;4.47;3.97;;;19.30;67.60;;;;;;5080307;28;20186;-54
2022/07/19 03:49:50;;;;;;;4.83;4.43;;;19.30;67.50;;;;;;5080049;28;20181;-53
2022/07/19 03:52:17;;;;;;;4.47;4.07;;;19.30;67.50;;;;;;5079556;28;20472;-51
2022/07/19 03:54:42;;;;;;;4.93;4.53;;;19.30;67.30;;;;;;5079973;28;20180;-55
2022/07/19 03:57:08;;;;;;;4.83;4.43;;;19.30;67.50;;;;;;5079298;28;20424;-52
2022/07/19 03:59:33;;;;;;;5.13;4.67;;;19.30;67.40;;;;;;5079683;28;20176;-52
2022/07/19 04:01:59;;;;;;;5.30;4.27;;;19.30;67.90;;;;;;5079845;28;20176;-51
2022/07/19 04:04:25;;;;;;;5.10;4.70;;;19.20;68.10;;;;;;5078587;28;20340;-54
2022/07/19 04:06:50;;;;;;;4.37;3.97;;;19.30;68.50;;;;;;5078298;28;20185;-52
2022/07/19 04:09:16;;;;;;;6.03;5.47;;;19.30;68.30;;;;;;5077737;28;20184;-55
2022/07/19 04:11:41;;;;;;;5.33;4.20;;;19.20;68.50;;;;;;5077586;28;20608;-50
2022/07/19 04:14:07;;;;;;;4.70;4.30;;;19.30;68.80;;;;;;5077035;28;20258;-50
2022/07/19 04:16:33;;;;;;;4.37;4.07;;;19.30;68.20;;;;;;5076924;28;20207;-52
2022/07/19 04:18:58;;;;;;;6.73;3.80;;;19.30;67.90;;;;;;5075526;28;20210;-50
2022/07/19 04:21:24;;;;;;;4.87;4.47;;;19.40;68.30;;;;;;5076898;28;20181;-50
2022/07/19 04:23:49;;;;;;;5.33;4.83;;;19.40;68.60;;;;;;5076059;28;20282;-54
2022/07/19 04:26:15;;;;;;;5.03;4.53;;;19.40;68.30;;;;;;5078041;28;20185;-55
2022/07/19 04:28:41;;;;;;;4.33;3.93;;;19.40;68.10;;;;;;5076723;28;20188;-51
2022/07/19 04:31:06;;;;;;;5.13;4.73;;;19.50;68.50;;;;;;5076109;28;20316;-57
2022/07/19 04:33:32;;;;;;;4.60;4.30;;;19.50;68.20;;;;;;5076039;28;20185;-57
2022/07/19 04:35:57;;;;;;;6.20;4.23;;;19.60;68.50;;;;;;5075923;28;20183;-57
2022/07/19 04:38:23;;;;;;;5.13;4.53;;;19.70;68.30;;;;;;5076790;28;20576;-57
2022/07/19 04:40:49;;;;;;;4.93;4.53;;;19.80;68.10;;;;;;5074155;28;20176;-58
2022/07/19 04:43:16;;;;;;;5.03;4.53;;;19.90;67.80;;;;;;5076873;28;20191;-55
2022/07/19 04:45:44;;;;;;;4.57;4.27;;;19.90;67.40;;;;;;5077005;28;20414;-55
2022/07/19 04:48:10;;;;;;;5.77;4.93;;;20.00;67.20;;;;;;5076020;28;20497;-56
2022/07/19 04:50:35;;;;;;;5.87;4.43;;;20.10;66.80;;;;;;5075483;28;20904;-56
2022/07/19 04:53:01;;;;;;;5.33;4.77;;;20.10;66.40;;;;;;5075588;28;20413;-57
2022/07/19 04:55:27;;;;;;;4.47;4.07;;;20.20;66.10;;;;;;5075075;28;20206;-58
2022/07/19 04:57:52;;;;;;;4.83;4.33;;;20.20;65.60;;;;;;5074241;28;20172;-58
2022/07/19 05:00:18;;;;;;;4.83;4.33;;;20.20;65.30;;;;;;5075261;28;20226;-57
2022/07/19 05:02:44;;;;;;;5.47;5.03;;;20.30;65.10;;;;;;5075653;28;20181;-55
2022/07/19 05:05:10;;;;;;;4.60;4.20;;;20.30;64.70;;;;;;5074911;28;20741;-57
2022/07/19 05:07:36;;;;;;;4.97;4.57;;;20.40;64.50;;;;;;5076362;28;20413;-56
2022/07/19 05:10:02;;;;;;;5.10;4.60;;;20.40;64.00;;;;;;5075097;28;20433;-59
2022/07/19 05:12:29;;;;;;;4.83;4.43;;;20.50;63.90;;;;;;5077542;28;20524;-56
2022/07/19 05:14:55;;;;;;;4.97;4.60;;;20.50;63.40;;;;;;5074730;28;20442;-56
2022/07/19 05:17:21;;;;;;;4.73;4.30;;;20.50;63.50;;;;;;5072496;28;20701;-58
2022/07/19 05:19:46;;;;;;;4.33;3.93;;;20.50;63.60;;;;;;5075363;28;20174;-58
2022/07/19 05:22:12;;;;;;;5.23;4.80;;;20.60;63.50;;;;;;5073748;28;20904;-59
2022/07/19 05:24:38;;;;;;;4.57;4.13;;;20.70;63.40;;;;;;5073044;28;20188;-61
2022/07/19 05:27:04;;;;;;;5.63;5.13;;;20.70;63.10;;;;;;5065025;28;20196;-59
2022/07/19 05:29:29;;;;;;;7.30;4.97;;;20.70;62.90;;;;;;5071597;28;20348;-58
2022/07/19 05:31:55;;;;;;;5.83;5.23;;;20.80;62.70;;;;;;5072031;28;20477;-58
2022/07/19 05:34:21;;;;;;;5.90;4.70;;;20.80;62.90;;;;;;5070138;28;20645;-57
2022/07/19 05:36:46;;;;;;;5.20;4.80;;;20.90;63.00;;;;;;5067921;28;20728;-57
2022/07/19 05:39:12;;;;;;;5.27;4.70;;;20.90;62.90;;;;;;5073696;28;20264;-59
2022/07/19 05:41:37;;;;;;;4.97;4.57;;;21.00;62.90;;;;;;5075432;28;20179;-59
2022/07/19 05:44:03;;;;;;;5.73;4.83;;;21.10;62.70;;;;;;5074094;28;20177;-58
2022/07/19 05:46:29;;;;;;;5.60;5.10;;;21.20;62.40;;;;;;5073007;28;20266;-56
2022/07/19 05:48:54;;;;;;;6.80;5.07;;;21.30;61.90;;;;;;5074115;28;20172;-60
2022/07/19 05:51:20;;;;;;;5.63;5.03;;;21.40;61.40;;;;;;5072239;28;20247;-58
2022/07/19 05:53:46;;;;;;;17.37;10.60;;;21.50;61.10;;;;;;5073762;28;20174;-55
2022/07/19 05:56:11;;;;;;;37.87;21.13;;;21.60;60.80;;;;;;5071243;28;20168;-58
2022/07/19 05:58:37;;;;;;;34.33;20.00;;;21.70;60.80;;;;;;5070818;28;20544;-58
2022/07/19 06:01:19;;;;;;;33.53;19.13;;;21.80;60.80;;;;;;5071842;28;20693;-58
2022/07/19 06:03:48;;;;;;;15.43;11.40;;;21.90;60.70;;;;;;5069897;28;20715;-58
2022/07/19 06:06:15;;;;;;;21.47;12.70;;;22.00;60.10;;;;;;5068450;28;20452;-58
2022/07/19 06:08:41;;;;;;;15.67;8.77;;;22.10;59.90;;;;;;5072002;28;21028;-56
2022/07/19 06:11:07;;;;;;;8.03;5.73;;;22.20;59.40;;;;;;5073384;28;20481;-57
2022/07/19 06:13:32;;;;;;;13.23;7.00;;;22.30;58.90;;;;;;5073388;28;20171;-56
2022/07/19 06:15:58;;;;;;;15.70;7.80;;;22.50;58.50;;;;;;5070797;28;20190;-58
2022/07/19 06:18:24;;;;;;;14.70;7.90;;;22.60;57.90;;;;;;5072050;28;20175;-56
2022/07/19 06:20:49;;;;;;;11.47;5.80;;;22.80;58.00;;;;;;5071099;28;20592;-57
2022/07/19 06:23:15;;;;;;;11.67;6.30;;;23.00;57.30;;;;;;5071024;28;20181;-55
2022/07/19 06:25:40;;;;;;;13.60;5.47;;;23.10;57.10;;;;;;5072747;28;20184;-56
2022/07/19 06:28:06;;;;;;;5.27;4.30;;;23.40;56.10;;;;;;5071095;28;20259;-57
2022/07/19 06:30:32;;;;;;;6.03;4.13;;;23.60;52.50;;;;;;5074570;28;20273;-57
2022/07/19 06:32:57;;;;;;;6.10;5.00;;;23.80;51.20;;;;;;5073655;28;20725;-55
2022/07/19 06:35:24;;;;;;;4.30;3.90;;;24.10;49.50;;;;;;5073719;28;20193;-56
2022/07/19 06:37:50;;;;;;;4.37;3.87;;;24.30;48.70;;;;;;5071859;28;20192;-55
2022/07/19 06:40:15;;;;;;;5.77;4.37;;;24.50;48.30;;;;;;5072260;28;20700;-57
2022/07/19 06:42:41;;;;;;;5.30;4.37;;;24.70;47.90;;;;;;5073797;28;20172;-56
2022/07/19 06:45:07;;;;;;;4.90;4.00;;;24.90;47.30;;;;;;5074755;28;20185;-56
2022/07/19 06:47:32;;;;;;;4.83;3.93;;;25.10;47.00;;;;;;5073647;28;20184;-56
2022/07/19 06:49:59;;;;;;;5.13;3.60;;;25.20;46.60;;;;;;5074672;28;20423;-55
2022/07/19 06:52:25;;;;;;;6.50;3.70;;;25.40;46.30;;;;;;5074835;28;20269;-55
2022/07/19 06:54:50;;;;;;;4.77;3.13;;;25.60;46.30;;;;;;5073700;28;20469;-59
2022/07/19 06:57:16;;;;;;;6.13;3.50;;;25.80;45.70;;;;;;5073641;28;20457;-57
2022/07/19 06:59:42;;;;;;;8.00;4.73;;;25.90;45.10;;;;;;5073781;28;20193;-55
2022/07/19 07:02:07;;;;;;;3.93;3.47;;;26.10;44.70;;;;;;5075041;28;20186;-58
2022/07/19 07:04:33;;;;;;;4.90;2.97;;;26.20;44.20;;;;;;5074936;28;20588;-56
2022/07/19 07:06:58;;;;;;;3.80;3.50;;;26.40;43.50;;;;;;5074351;28;20193;-56
2022/07/19 07:09:24;;;;;;;4.20;3.80;;;26.60;43.00;;;;;;5071971;28;20284;-57
2022/07/19 07:11:50;;;;;;;3.77;3.47;;;26.60;43.00;;;;;;5068916;28;20224;-58
2022/07/19 07:14:15;;;;;;;3.90;3.30;;;26.80;42.60;;;;;;5071436;28;20231;-56
2022/07/19 07:16:41;;;;;;;4.20;3.80;;;27.00;42.40;;;;;;5072985;28;20459;-45
2022/07/19 07:19:07;;;;;;;4.03;3.63;;;27.10;42.10;;;;;;5073608;28;20298;-44
2022/07/19 07:21:34;;;;;;;6.90;4.80;;;27.30;42.20;;;;;;5073935;28;20261;-40
2022/07/19 07:24:01;;;;;;;6.40;3.77;;;27.60;42.50;;;;;;5073006;28;20201;-41
2022/07/19 07:26:27;;;;;;;8.90;3.40;;;27.80;40.70;;;;;;5074355;28;20524;-41
2022/07/19 07:28:53;;;;;;;5.43;3.67;;;28.00;40.30;;;;;;5071936;28;20588;-43
2022/07/19 07:31:19;;;;;;;4.77;4.03;;;28.10;40.20;;;;;;5071385;28;20564;-41
2022/07/19 07:33:44;;;;;;;3.90;3.60;;;28.10;40.50;;;;;;5071244;28;20177;-42
2022/07/19 07:36:10;;;;;;;4.80;3.73;;;28.30;40.30;;;;;;5069877;28;20478;-41
2022/07/19 07:38:36;;;;;;;3.80;3.50;;;28.50;40.40;;;;;;5069423;28;20308;-42
2022/07/19 07:41:02;;;;;;;4.07;3.77;;;28.70;39.80;;;;;;5071885;28;20265;-42
2022/07/19 07:43:28;;;;;;;4.57;3.20;;;28.90;39.50;;;;;;5073996;28;20270;-41
2022/07/19 07:45:53;;;;;;;3.40;3.10;;;29.00;38.80;;;;;;5073468;28;20861;-41
2022/07/19 07:48:19;;;;;;;3.50;3.23;;;29.00;38.40;;;;;;5075443;28;20694;-42
2022/07/19 07:50:45;;;;;;;5.20;3.83;;;29.00;37.70;;;;;;5077663;28;20275;-45
2022/07/19 07:53:10;;;;;;;6.20;3.37;;;29.00;38.10;;;;;;5074090;28;20224;-40
2022/07/19 07:55:39;;;;;;;4.07;3.67;;;29.10;37.80;;;;;;5057104;28;20213;-41
2022/07/19 07:58:08;;;;;;;3.27;2.97;;;29.20;37.70;;;;;;5072774;28;20363;-41
2022/07/19 08:00:35;;;;;;;3.60;3.30;;;29.30;37.50;;;;;;5073241;28;20888;-43
2022/07/19 08:03:00;;;;;;;4.30;3.40;;;29.40;37.30;;;;;;5072152;28;20911;-44
2022/07/19 08:05:26;;;;;;;4.43;3.30;;;29.40;36.80;;;;;;5071623;28;20604;-42
2022/07/19 08:07:52;;;;;;;3.87;3.10;;;29.50;36.90;;;;;;5074354;28;20185;-42
2022/07/19 08:10:18;;;;;;;4.77;2.97;;;29.40;36.30;;;;;;5074692;28;20245;-40
2022/07/19 08:12:43;;;;;;;4.10;2.80;;;29.50;36.80;;;;;;5074322;28;20202;-43
2022/07/19 08:15:09;;;;;;;3.80;3.00;;;29.60;36.50;;;;;;5072656;28;20296;-42
2022/07/19 08:17:35;;;;;;;3.30;3.00;;;29.90;36.30;;;;;;5074554;28;20166;-43
2022/07/19 08:20:01;;;;;;;5.50;3.43;;;29.90;35.40;;;;;;5075761;28;20794;-41
2022/07/19 08:22:28;;;;;;;5.33;3.67;;;29.90;35.90;;;;;;5077409;28;20185;-44
2022/07/19 08:24:54;;;;;;;4.77;3.80;;;30.00;36.10;;;;;;5076121;28;20826;-41
2022/07/19 08:27:19;;;;;;;7.23;6.63;;;30.20;36.10;;;;;;5076188;28;20414;-43
2022/07/19 08:29:45;;;;;;;4.63;3.67;;;30.40;36.30;;;;;;5075301;28;20426;-42
2022/07/19 08:32:11;;;;;;;3.80;3.50;;;30.70;35.70;;;;;;5074383;28;20279;-42
2022/07/19 08:34:38;;;;;;;3.90;3.30;;;31.00;35.40;;;;;;5074324;28;20208;-41
2022/07/19 08:37:03;;;;;;;3.90;3.50;;;31.20;35.00;;;;;;5074793;28;20666;-43
2022/07/19 08:39:29;;;;;;;5.50;3.77;;;31.20;34.30;;;;;;5076226;28;20398;-43
2022/07/19 08:41:55;;;;;;;5.27;3.40;;;31.20;34.70;;;;;;5075629;28;20588;-43
2022/07/19 08:44:22;;;;;;;3.23;2.93;;;31.50;35.20;;;;;;5076001;28;20423;-44
2022/07/19 08:46:48;;;;;;;7.50;3.63;;;31.60;33.50;;;;;;5074483;28;20557;-41
2022/07/19 08:49:14;;;;;;;8.87;3.50;;;31.50;33.90;;;;;;5075584;28;20839;-43
2022/07/19 08:51:41;;;;;;;4.73;3.23;;;31.50;33.60;;;;;;5075773;28;20845;-42
2022/07/19 08:54:07;;;;;;;3.53;3.07;;;31.30;33.30;;;;;;5075845;28;20435;-40
2022/07/19 08:59:16;;;;;;;6.30;3.70;;;31.70;34.40;;;;;;5072422;28;20180;-42
2022/07/19 09:01:42;;;;;;;4.03;3.63;;;32.20;34.10;;;;;;5071850;28;20410;-41
2022/07/19 09:04:13;;;;;;;3.50;3.20;;;32.40;32.80;;;;;;5072259;28;20276;-41
2022/07/19 09:06:44;;;;;;;5.40;4.87;;;32.70;32.90;;;;;;5073725;28;20190;-41
2022/07/19 09:09:11;;;;;;;4.53;3.90;;;32.70;32.90;;;;;;5071720;28;20450;-42
2022/07/19 09:11:40;;;;;;;3.17;2.93;;;33.00;33.20;;;;;;5071786;28;20454;-42
2022/07/19 09:14:10;;;;;;;5.53;4.43;;;33.10;32.90;;;;;;5072941;28;20386;-40
2022/07/19 09:16:55;;;;;;;3.47;3.17;;;33.40;32.40;;;;;;5075094;28;20778;-42
2022/07/19 09:19:22;;;;;;;5.50;3.20;;;33.40;32.10;;;;;;5075494;28;20495;-42
2022/07/19 09:21:54;;;;;;;7.20;3.90;;;33.20;31.50;;;;;;5075221;28;20814;-42
2022/07/19 09:24:21;;;;;;;4.40;4.00;;;32.80;31.80;;;;;;5074738;28;20425;-40
2022/07/19 09:27:03;;;;;;;5.20;3.70;;;32.50;31.70;;;;;;5074617;28;20416;-44
2022/07/19 09:29:30;;;;;;;4.30;3.90;;;32.40;32.50;;;;;;5074245;28;20430;-42
2022/07/19 09:32:08;;;;;;;6.33;3.67;;;32.50;32.60;;;;;;5075022;28;20587;-41
2022/07/19 09:34:55;;;;;;;3.83;3.53;;;32.50;32.40;;;;;;5074974;28;20393;-44
2022/07/19 09:37:22;;;;;;;4.53;4.13;;;32.60;32.30;;;;;;5073598;28;20812;-42
2022/07/19 09:39:53;;;;;;;4.90;3.60;;;32.70;32.20;;;;;;5072047;28;20698;-41
2022/07/19 09:42:34;;;;;;;4.30;3.90;;;32.70;31.50;;;;;;5072944;28;20428;-42
2022/07/19 09:45:02;;;;;;;4.00;3.60;;;32.60;31.70;;;;;;5073425;28;20455;-41
2022/07/19 09:47:35;;;;;;;4.73;3.97;;;32.60;32.10;;;;;;5073049;28;20800;-41
2022/07/19 09:50:04;;;;;;;4.03;3.73;;;32.50;32.10;;;;;;5074442;28;20410;-43
2022/07/19 09:52:30;;;;;;;4.60;4.03;;;32.70;32.10;;;;;;5072909;28;20782;-41
2022/07/19 09:54:55;;;;;;;4.50;3.80;;;32.60;32.10;;;;;;5072904;28;20673;-42
2022/07/19 09:57:25;;;;;;;4.60;3.60;;;32.70;31.70;;;;;;5073623;28;20418;-42
2022/07/19 09:59:57;;;;;;;4.23;3.83;;;33.00;31.10;;;;;;5072698;28;20166;-42
2022/07/19 10:02:23;;;;;;;5.30;3.83;;;33.00;30.70;;;;;;5073265;28;20446;-40
2022/07/19 10:04:50;;;;;;;4.87;3.80;;;33.00;30.50;;;;;;5072071;28;20500;-45
2022/07/19 10:07:17;;;;;;;5.07;3.80;;;33.20;31.10;;;;;;5073135;28;20439;-44
2022/07/19 10:09:43;;;;;;;4.77;4.30;;;33.20;31.00;;;;;;5073981;28;20388;-42
2022/07/19 10:12:11;;;;;;;4.20;3.90;;;33.00;31.50;;;;;;5073727;28;20442;-42
2022/07/19 10:14:37;;;;;;;4.33;3.63;;;32.90;32.10;;;;;;5071174;28;20418;-42
2022/07/19 10:17:23;;;;;;;5.07;4.00;;;33.10;32.10;;;;;;5068874;28;20398;-43
2022/07/19 10:19:49;;;;;;;4.00;3.70;;;33.60;32.40;;;;;;5068209;28;20177;-43
2022/07/19 10:22:18;;;;;;;6.70;4.53;;;34.50;32.00;;;;;;5070057;28;20408;-43
2022/07/19 10:24:44;;;;;;;4.50;4.20;;;35.30;30.10;;;;;;5071399;28;20409;-45
2022/07/19 10:27:10;;;;;;;9.40;4.37;;;36.10;29.90;;;;;;5072753;28;20423;-42
2022/07/19 10:29:35;;;;;;;4.10;3.70;;;36.20;29.40;;;;;;5071323;28;20194;-43
2022/07/19 10:32:09;;;;;;;4.00;3.60;;;36.20;29.50;;;;;;5071449;28;20452;-42
2022/07/19 10:34:35;;;;;;;4.30;3.90;;;36.10;29.90;;;;;;5069237;28;20237;-44
2022/07/19 10:37:01;;;;;;;5.50;4.30;;;36.30;29.00;;;;;;5069340;28;20814;-42
2022/07/19 10:39:35;;;;;;;4.67;3.70;;;36.30;29.20;;;;;;5071460;28;20412;-43
2022/07/19 10:42:16;;;;;;;5.43;4.60;;;36.40;29.20;;;;;;5070317;28;20437;-43
2022/07/19 10:44:59;;;;;;;4.67;4.27;;;37.20;29.30;;;;;;5072568;28;20412;-42
2022/07/19 10:47:37;;;;;;;4.20;3.80;;;37.90;27.60;;;;;;5073391;28;20538;-45
2022/07/19 10:50:04;;;;;;;5.90;3.80;;;38.00;27.80;;;;;;5072006;28;20398;-46
2022/07/19 10:52:39;;;;;;;4.10;3.70;;;38.10;27.20;;;;;;5073778;28;20652;-40
2022/07/19 10:55:22;;;;;;;4.47;4.17;;;37.80;28.00;;;;;;5072724;28;20918;-43
2022/07/19 10:57:49;;;;;;;5.00;4.27;;;38.30;27.70;;;;;;5071434;28;20404;-43
2022/07/19 11:00:23;;;;;;;4.63;4.10;;;38.00;27.10;;;;;;5073240;28;20387;-45
2022/07/19 11:02:50;;;;;;;5.43;4.30;;;37.60;27.20;;;;;;5072096;28;21000;-42
2022/07/19 11:05:29;;;;;;;4.33;3.93;;;37.30;27.50;;;;;;5074339;28;20417;-44
2022/07/19 11:07:57;;;;;;;7.33;3.80;;;37.30;28.00;;;;;;5072010;28;20415;-43
2022/07/19 11:10:23;;;;;;;4.70;4.03;;;37.90;28.30;;;;;;5073394;28;20886;-42
2022/07/19 11:12:49;;;;;;;5.20;4.70;;;38.60;27.20;;;;;;5072995;28;20531;-46
2022/07/19 11:15:15;;;;;;;4.57;3.90;;;39.30;27.60;;;;;;5073131;28;20413;-42
2022/07/19 11:17:57;;;;;;;4.53;4.13;;;39.80;26.60;;;;;;5077031;28;20427;-44
2022/07/19 11:20:24;;;;;;;5.37;4.73;;;40.30;26.70;;;;;;5076673;28;20173;-45
2022/07/19 11:22:50;;;;;;;5.40;4.90;;;40.40;26.10;;;;;;5076843;28;20401;-43
2022/07/19 11:25:22;;;;;;;4.27;3.87;;;39.40;26.10;;;;;;5076530;28;20432;-45
2022/07/19 11:27:48;;;;;;;6.00;3.93;;;39.10;26.60;;;;;;5075064;28;20169;-43
2022/07/19 11:30:14;;;;;;;4.47;4.07;;;39.50;27.10;;;;;;5073308;28;20427;-43
2022/07/19 11:32:44;;;;;;;5.30;4.63;;;39.70;26.00;;;;;;5072871;28;20892;-42
2022/07/19 11:35:11;;;;;;;4.53;4.13;;;39.60;26.40;;;;;;5074939;28;20659;-46
2022/07/19 11:37:40;;;;;;;6.57;4.63;;;40.00;26.70;;;;;;5074107;28;20680;-43
2022/07/19 11:40:07;;;;;;;6.13;4.70;;;40.60;26.50;;;;;;5073927;28;20869;-42
2022/07/19 11:42:41;;;;;;;4.60;4.20;;;41.00;25.50;;;;;;5073097;28;20841;-43
2022/07/19 11:45:11;;;;;;;6.77;4.40;;;40.20;25.40;;;;;;5074864;28;20509;-43
2022/07/19 11:47:41;;;;;;;4.50;4.10;;;40.20;26.00;;;;;;5074042;28;20438;-42
2022/07/19 11:50:07;;;;;;;5.33;4.83;;;39.60;25.40;;;;;;5074714;28;20512;-42
2022/07/19 11:52:54;;;;;;;5.27;4.07;;;39.20;25.80;;;;;;5071682;28;20511;-44
2022/07/19 11:55:22;;;;;;;5.47;4.57;;;38.70;26.00;;;;;;5074537;28;20797;-43
2022/07/19 11:57:49;;;;;;;5.53;4.70;;;39.00;26.30;;;;;;5073391;28;20442;-43
2022/07/19 12:00:15;;;;;;;6.07;4.87;;;39.30;26.00;;;;;;5074572;28;20471;-42
2022/07/19 12:02:57;;;;;;;5.63;5.13;;;39.30;25.50;;;;;;5075587;28;20418;-43
2022/07/19 12:05:24;;;;;;;5.10;4.60;;;39.10;25.70;;;;;;5076775;28;20420;-41
2022/07/19 12:07:51;;;;;;;4.80;4.40;;;39.20;25.90;;;;;;5077490;28;20818;-41
2022/07/19 12:10:38;;;;;;;5.20;4.63;;;39.60;26.70;;;;;;5077702;28;20486;-44
2022/07/19 12:13:05;;;;;;;5.53;3.80;;;39.90;25.70;;;;;;5075866;28;20494;-43
2022/07/19 12:15:51;;;;;;;5.17;4.77;;;39.70;25.90;;;;;;5076292;28;20674;-44
2022/07/19 12:18:18;;;;;;;5.60;4.90;;;40.10;25.60;;;;;;5075439;28;20491;-45
2022/07/19 12:20:45;;;;;;;7.70;5.30;;;39.90;25.30;;;;;;5073349;28;20480;-48
2022/07/19 12:23:13;;;;;;;5.33;4.83;;;39.50;25.40;;;;;;5076448;28;20653;-44
2022/07/19 12:25:39;;;;;;;6.23;4.33;;;39.30;25.70;;;;;;5076050;28;20458;-43
2022/07/19 12:28:05;;;;;;;4.80;4.30;;;39.10;25.70;;;;;;5075731;28;20413;-42
2022/07/19 12:30:30;;;;;;;4.70;4.33;;;38.90;25.90;;;;;;5073993;28;20542;-43
2022/07/19 12:33:14;;;;;;;4.93;4.43;;;39.30;25.90;;;;;;5077550;28;20610;-45
2022/07/19 12:35:43;;;;;;;6.17;5.20;;;39.50;26.00;;;;;;5077241;28;20563;-43
2022/07/19 12:38:11;;;;;;;5.10;4.70;;;39.20;25.90;;;;;;5075264;28;20496;-42
2022/07/19 12:40:38;;;;;;;5.03;4.63;;;38.80;25.80;;;;;;5075837;28;20582;-47
2022/07/19 12:43:04;;;;;;;5.60;5.10;;;38.80;26.00;;;;;;5075622;28;20422;-43
2022/07/19 12:45:30;;;;;;;5.93;5.20;;;39.20;26.30;;;;;;5075933;28;20430;-44
2022/07/19 12:47:57;;;;;;;6.67;6.00;;;40.10;26.20;;;;;;5074563;28;20189;-42
2022/07/19 12:50:27;;;;;;;5.30;4.77;;;40.50;25.70;;;;;;5057083;28;20423;-42
2022/07/19 12:52:55;;;;;;;6.20;4.57;;;40.40;25.70;;;;;;5074528;28;20415;-42
2022/07/19 12:55:22;;;;;;;7.50;5.27;;;39.80;25.90;;;;;;5074631;28;20679;-43